sensor_id;sensor_type;location;lat;lon;timestamp;temperature;humidity
25937;DHT22;13733;51.178;4.450;2023-07-30T00:02:18;17.10;99.90
25937;DHT22;13733;51.178;4.450;2023-07-30T00:04:45;17.00;99.90
25937;DHT22;13733;51.178;4.450;2023-07-30T00:07:11;17.00;99.90
25937;DHT22;13733;51.178;4.450;2023-07-30T00:09:37;17.00;99.90
25937;DHT22;13733;51.178;4.450;2023-07-30T00:12:04;17.10;99.90
25937;DHT22;13733;51.178;4.450;2023-07-30T00:14:30;17.00;99.90
25937;DHT22;13733;51.178;4.450;2023-07-30T00:16:56;17.00;99.90
25937;DHT22;13733;51.178;4.450;2023-07-30T00:19:22;16.90;99.90
25937;DHT22;13733;51.178;4.450;2023-07-30T00:21:47;16.80;99.90
25937;DHT22;13733;51.178;4.450;2023-07-30T00:24:13;16.70;99.90
25937;DHT22;13733;51.178;4.450;2023-07-30T00:26:39;16.70;99.90
25937;DHT22;13733;51.178;4.450;2023-07-30T00:29:05;16.70;99.90
25937;DHT22;13733;51.178;4.450;2023-07-30T00:31:30;16.80;99.90
25937;DHT22;13733;51.178;4.450;2023-07-30T00:33:58;16.80;99.90
25937;DHT22;13733;51.178;4.450;2023-07-30T00:36:23;16.80;99.90
25937;DHT22;13733;51.178;4.450;2023-07-30T00:38:49;16.80;99.90
25937;DHT22;13733;51.178;4.450;2023-07-30T00:41:15;16.70;99.90
25937;DHT22;13733;51.178;4.450;2023-07-30T00:43:41;16.60;99.90
25937;DHT22;13733;51.178;4.450;2023-07-30T00:46:08;16.60;99.90
25937;DHT22;13733;51.178;4.450;2023-07-30T00:48:34;16.70;99.90
25937;DHT22;13733;51.178;4.450;2023-07-30T00:51:00;16.70;99.90
25937;DHT22;13733;51.178;4.450;2023-07-30T00:53:26;16.70;99.90
25937;DHT22;13733;51.178;4.450;2023-07-30T00:55:53;16.50;99.90
25937;DHT22;13733;51.178;4.450;2023-07-30T00:58:20;16.50;99.90
25937;DHT22;13733;51.178;4.450;2023-07-30T01:00:47;16.60;99.90
25937;DHT22;13733;51.178;4.450;2023-07-30T01:03:13;16.60;99.90
25937;DHT22;13733;51.178;4.450;2023-07-30T01:05:39;16.60;99.90
25937;DHT22;13733;51.178;4.450;2023-07-30T01:08:05;16.80;99.90
25937;DHT22;13733;51.178;4.450;2023-07-30T01:10:32;16.70;99.90
25937;DHT22;13733;51.178;4.450;2023-07-30T01:13:01;16.70;99.90
25937;DHT22;13733;51.178;4.450;2023-07-30T01:15:29;16.70;99.90
25937;DHT22;13733;51.178;4.450;2023-07-30T01:17:55;16.60;99.90
25937;DHT22;13733;51.178;4.450;2023-07-30T01:20:21;16.70;99.90
25937;DHT22;13733;51.178;4.450;2023-07-30T01:22:47;16.70;99.90
25937;DHT22;13733;51.178;4.450;2023-07-30T01:25:16;16.70;99.90
25937;DHT22;13733;51.178;4.450;2023-07-30T01:27:48;16.70;99.90
25937;DHT22;13733;51.178;4.450;2023-07-30T01:30:27;16.60;99.90
25937;DHT22;13733;51.178;4.450;2023-07-30T01:32:53;16.50;99.90
25937;DHT22;13733;51.178;4.450;2023-07-30T01:35:26;16.50;99.90
25937;DHT22;13733;51.178;4.450;2023-07-30T01:37:52;16.50;99.90
25937;DHT22;13733;51.178;4.450;2023-07-30T01:40:20;16.50;99.90
25937;DHT22;13733;51.178;4.450;2023-07-30T01:42:45;16.50;99.90
25937;DHT22;13733;51.178;4.450;2023-07-30T01:45:11;16.60;99.90
25937;DHT22;13733;51.178;4.450;2023-07-30T01:47:37;16.50;99.90
25937;DHT22;13733;51.178;4.450;2023-07-30T01:50:03;16.40;99.90
25937;DHT22;13733;51.178;4.450;2023-07-30T01:52:29;16.50;99.90
25937;DHT22;13733;51.178;4.450;2023-07-30T01:54:56;16.50;99.90
25937;DHT22;13733;51.178;4.450;2023-07-30T01:57:24;16.40;99.90
25937;DHT22;13733;51.178;4.450;2023-07-30T01:59:50;16.60;99.90
25937;DHT22;13733;51.178;4.450;2023-07-30T02:02:16;16.50;99.90
25937;DHT22;13733;51.178;4.450;2023-07-30T02:04:41;16.40;99.90
25937;DHT22;13733;51.178;4.450;2023-07-30T02:07:07;16.20;99.90
25937;DHT22;13733;51.178;4.450;2023-07-30T02:09:33;16.20;99.90
25937;DHT22;13733;51.178;4.450;2023-07-30T02:12:00;16.20;99.90
25937;DHT22;13733;51.178;4.450;2023-07-30T02:14:26;16.20;99.90
25937;DHT22;13733;51.178;4.450;2023-07-30T02:16:52;16.20;99.90
25937;DHT22;13733;51.178;4.450;2023-07-30T02:19:18;16.30;99.90
25937;DHT22;13733;51.178;4.450;2023-07-30T02:21:44;16.30;99.90
25937;DHT22;13733;51.178;4.450;2023-07-30T02:24:10;16.30;99.90
25937;DHT22;13733;51.178;4.450;2023-07-30T02:26:39;16.20;99.90
25937;DHT22;13733;51.178;4.450;2023-07-30T02:29:05;16.20;99.90
25937;DHT22;13733;51.178;4.450;2023-07-30T02:31:31;16.10;99.90
25937;DHT22;13733;51.178;4.450;2023-07-30T02:33:56;16.10;99.90
25937;DHT22;13733;51.178;4.450;2023-07-30T02:36:23;16.10;99.90
25937;DHT22;13733;51.178;4.450;2023-07-30T02:38:49;16.20;99.90
25937;DHT22;13733;51.178;4.450;2023-07-30T02:41:14;16.40;99.90
25937;DHT22;13733;51.178;4.450;2023-07-30T02:43:40;16.60;99.90
25937;DHT22;13733;51.178;4.450;2023-07-30T02:46:06;16.60;99.90
25937;DHT22;13733;51.178;4.450;2023-07-30T02:48:33;16.50;99.90
25937;DHT22;13733;51.178;4.450;2023-07-30T02:50:58;16.70;99.90
25937;DHT22;13733;51.178;4.450;2023-07-30T02:53:24;16.70;99.90
25937;DHT22;13733;51.178;4.450;2023-07-30T02:55:50;16.70;99.90
25937;DHT22;13733;51.178;4.450;2023-07-30T02:58:16;16.70;99.90
25937;DHT22;13733;51.178;4.450;2023-07-30T03:00:41;16.70;99.90
25937;DHT22;13733;51.178;4.450;2023-07-30T03:03:07;16.80;99.90
25937;DHT22;13733;51.178;4.450;2023-07-30T03:05:33;16.80;99.90
25937;DHT22;13733;51.178;4.450;2023-07-30T03:07:59;16.80;99.90
25937;DHT22;13733;51.178;4.450;2023-07-30T03:10:26;16.80;99.90
25937;DHT22;13733;51.178;4.450;2023-07-30T03:12:51;17.00;99.90
25937;DHT22;13733;51.178;4.450;2023-07-30T03:15:17;16.90;99.90
25937;DHT22;13733;51.178;4.450;2023-07-30T03:17:43;17.00;99.90
25937;DHT22;13733;51.178;4.450;2023-07-30T03:20:09;17.00;99.90
25937;DHT22;13733;51.178;4.450;2023-07-30T03:22:35;16.90;99.90
25937;DHT22;13733;51.178;4.450;2023-07-30T03:25:01;16.80;99.90
25937;DHT22;13733;51.178;4.450;2023-07-30T03:27:26;16.70;99.90
25937;DHT22;13733;51.178;4.450;2023-07-30T03:29:52;16.70;99.90
25937;DHT22;13733;51.178;4.450;2023-07-30T03:32:19;16.70;99.90
25937;DHT22;13733;51.178;4.450;2023-07-30T03:34:45;16.80;99.90
25937;DHT22;13733;51.178;4.450;2023-07-30T03:37:11;16.90;99.90
25937;DHT22;13733;51.178;4.450;2023-07-30T03:39:36;16.80;99.90
25937;DHT22;13733;51.178;4.450;2023-07-30T03:42:02;16.90;99.90
25937;DHT22;13733;51.178;4.450;2023-07-30T03:44:28;16.90;99.90
25937;DHT22;13733;51.178;4.450;2023-07-30T03:46:54;17.00;99.90
25937;DHT22;13733;51.178;4.450;2023-07-30T03:49:19;16.80;99.90
25937;DHT22;13733;51.178;4.450;2023-07-30T03:51:45;16.80;99.90
25937;DHT22;13733;51.178;4.450;2023-07-30T03:54:11;16.80;99.90
25937;DHT22;13733;51.178;4.450;2023-07-30T03:56:37;16.70;99.90
25937;DHT22;13733;51.178;4.450;2023-07-30T03:59:03;16.80;99.90
25937;DHT22;13733;51.178;4.450;2023-07-30T04:01:28;16.80;99.90
25937;DHT22;13733;51.178;4.450;2023-07-30T04:03:56;16.70;99.90
25937;DHT22;13733;51.178;4.450;2023-07-30T04:06:21;16.90;99.90
25937;DHT22;13733;51.178;4.450;2023-07-30T04:08:47;17.00;99.90
25937;DHT22;13733;51.178;4.450;2023-07-30T04:11:13;17.00;99.90
25937;DHT22;13733;51.178;4.450;2023-07-30T04:13:39;16.90;99.90
25937;DHT22;13733;51.178;4.450;2023-07-30T04:16:07;16.80;99.90
25937;DHT22;13733;51.178;4.450;2023-07-30T04:18:33;16.90;99.90
25937;DHT22;13733;51.178;4.450;2023-07-30T04:20:59;16.90;99.90
25937;DHT22;13733;51.178;4.450;2023-07-30T04:23:25;17.10;99.90
25937;DHT22;13733;51.178;4.450;2023-07-30T04:25:50;17.00;99.90
25937;DHT22;13733;51.178;4.450;2023-07-30T04:28:17;16.90;99.90
25937;DHT22;13733;51.178;4.450;2023-07-30T04:30:44;16.80;99.90
25937;DHT22;13733;51.178;4.450;2023-07-30T04:33:13;16.80;99.90
25937;DHT22;13733;51.178;4.450;2023-07-30T04:35:41;16.70;99.90
25937;DHT22;13733;51.178;4.450;2023-07-30T04:38:08;16.70;99.90
25937;DHT22;13733;51.178;4.450;2023-07-30T04:40:33;16.80;99.90
25937;DHT22;13733;51.178;4.450;2023-07-30T04:42:59;16.70;99.90
25937;DHT22;13733;51.178;4.450;2023-07-30T04:45:25;16.80;99.90
25937;DHT22;13733;51.178;4.450;2023-07-30T04:47:52;17.00;99.90
25937;DHT22;13733;51.178;4.450;2023-07-30T04:50:18;17.00;99.90
25937;DHT22;13733;51.178;4.450;2023-07-30T04:52:43;16.80;99.90
25937;DHT22;13733;51.178;4.450;2023-07-30T04:55:09;16.70;99.90
25937;DHT22;13733;51.178;4.450;2023-07-30T04:57:35;16.70;99.90
25937;DHT22;13733;51.178;4.450;2023-07-30T05:00:02;16.70;99.90
25937;DHT22;13733;51.178;4.450;2023-07-30T05:02:28;16.80;99.90
25937;DHT22;13733;51.178;4.450;2023-07-30T05:04:54;16.80;99.90
25937;DHT22;13733;51.178;4.450;2023-07-30T05:07:19;16.70;99.90
25937;DHT22;13733;51.178;4.450;2023-07-30T05:09:45;16.60;99.90
25937;DHT22;13733;51.178;4.450;2023-07-30T05:12:11;16.70;99.90
25937;DHT22;13733;51.178;4.450;2023-07-30T05:14:37;16.90;99.90
25937;DHT22;13733;51.178;4.450;2023-07-30T05:17:02;17.10;99.90
25937;DHT22;13733;51.178;4.450;2023-07-30T05:19:28;16.90;99.90
25937;DHT22;13733;51.178;4.450;2023-07-30T05:21:54;17.00;99.90
25937;DHT22;13733;51.178;4.450;2023-07-30T05:24:20;17.10;99.90
25937;DHT22;13733;51.178;4.450;2023-07-30T05:26:46;17.10;99.90
25937;DHT22;13733;51.178;4.450;2023-07-30T05:29:12;17.20;99.90
25937;DHT22;13733;51.178;4.450;2023-07-30T05:31:38;17.10;99.90
25937;DHT22;13733;51.178;4.450;2023-07-30T05:34:03;17.10;99.90
25937;DHT22;13733;51.178;4.450;2023-07-30T05:36:29;17.00;99.90
25937;DHT22;13733;51.178;4.450;2023-07-30T05:38:55;17.10;99.90
25937;DHT22;13733;51.178;4.450;2023-07-30T05:41:21;17.00;99.90
25937;DHT22;13733;51.178;4.450;2023-07-30T05:43:46;16.90;99.90
25937;DHT22;13733;51.178;4.450;2023-07-30T05:46:13;16.80;99.90
25937;DHT22;13733;51.178;4.450;2023-07-30T05:48:40;16.90;99.90
25937;DHT22;13733;51.178;4.450;2023-07-30T05:51:07;16.90;99.90
25937;DHT22;13733;51.178;4.450;2023-07-30T05:53:33;16.90;99.90
25937;DHT22;13733;51.178;4.450;2023-07-30T05:55:58;16.90;99.90
25937;DHT22;13733;51.178;4.450;2023-07-30T05:58:24;16.80;99.90
25937;DHT22;13733;51.178;4.450;2023-07-30T06:00:50;17.00;99.90
25937;DHT22;13733;51.178;4.450;2023-07-30T06:03:16;17.20;99.90
25937;DHT22;13733;51.178;4.450;2023-07-30T06:05:42;17.20;99.90
25937;DHT22;13733;51.178;4.450;2023-07-30T06:08:08;17.20;99.90
25937;DHT22;13733;51.178;4.450;2023-07-30T06:10:35;17.10;99.90
25937;DHT22;13733;51.178;4.450;2023-07-30T06:13:02;17.10;99.90
25937;DHT22;13733;51.178;4.450;2023-07-30T06:15:29;17.30;99.90
25937;DHT22;13733;51.178;4.450;2023-07-30T06:17:54;17.30;99.90
25937;DHT22;13733;51.178;4.450;2023-07-30T06:20:21;17.40;99.90
25937;DHT22;13733;51.178;4.450;2023-07-30T06:22:47;17.50;99.90
25937;DHT22;13733;51.178;4.450;2023-07-30T06:25:13;17.60;99.90
25937;DHT22;13733;51.178;4.450;2023-07-30T06:27:38;17.40;99.90
25937;DHT22;13733;51.178;4.450;2023-07-30T06:30:04;17.40;99.90
25937;DHT22;13733;51.178;4.450;2023-07-30T06:32:30;17.40;99.90
25937;DHT22;13733;51.178;4.450;2023-07-30T06:34:56;17.50;99.90
25937;DHT22;13733;51.178;4.450;2023-07-30T06:37:22;17.60;99.90
25937;DHT22;13733;51.178;4.450;2023-07-30T06:39:47;17.60;99.90
25937;DHT22;13733;51.178;4.450;2023-07-30T06:42:13;17.60;99.90
25937;DHT22;13733;51.178;4.450;2023-07-30T06:44:39;17.70;99.90
25937;DHT22;13733;51.178;4.450;2023-07-30T06:47:05;17.60;99.90
25937;DHT22;13733;51.178;4.450;2023-07-30T06:49:31;17.80;99.90
25937;DHT22;13733;51.178;4.450;2023-07-30T06:51:59;18.00;99.90
25937;DHT22;13733;51.178;4.450;2023-07-30T06:54:25;18.10;99.90
25937;DHT22;13733;51.178;4.450;2023-07-30T06:56:51;18.00;99.90
25937;DHT22;13733;51.178;4.450;2023-07-30T06:59:17;18.00;99.90
25937;DHT22;13733;51.178;4.450;2023-07-30T07:01:42;18.10;99.90
25937;DHT22;13733;51.178;4.450;2023-07-30T07:04:09;18.20;99.90
25937;DHT22;13733;51.178;4.450;2023-07-30T07:06:35;18.10;99.90
25937;DHT22;13733;51.178;4.450;2023-07-30T07:09:01;18.10;99.90
25937;DHT22;13733;51.178;4.450;2023-07-30T07:11:26;18.50;99.90
25937;DHT22;13733;51.178;4.450;2023-07-30T07:13:52;18.90;99.90
25937;DHT22;13733;51.178;4.450;2023-07-30T07:16:18;19.10;99.90
25937;DHT22;13733;51.178;4.450;2023-07-30T07:18:44;19.30;99.90
25937;DHT22;13733;51.178;4.450;2023-07-30T07:21:10;19.20;99.90
25937;DHT22;13733;51.178;4.450;2023-07-30T07:23:36;19.10;99.90
25937;DHT22;13733;51.178;4.450;2023-07-30T07:26:03;19.00;99.90
25937;DHT22;13733;51.178;4.450;2023-07-30T07:28:29;19.10;99.90
25937;DHT22;13733;51.178;4.450;2023-07-30T07:30:55;19.10;99.90
25937;DHT22;13733;51.178;4.450;2023-07-30T07:33:21;19.00;99.90
25937;DHT22;13733;51.178;4.450;2023-07-30T07:35:47;18.80;99.90
25937;DHT22;13733;51.178;4.450;2023-07-30T07:38:14;18.80;99.90
25937;DHT22;13733;51.178;4.450;2023-07-30T07:40:39;19.00;99.90
25937;DHT22;13733;51.178;4.450;2023-07-30T07:43:06;18.90;99.90
25937;DHT22;13733;51.178;4.450;2023-07-30T07:45:33;19.10;99.90
25937;DHT22;13733;51.178;4.450;2023-07-30T07:47:58;19.20;99.90
25937;DHT22;13733;51.178;4.450;2023-07-30T07:50:24;19.20;99.90
25937;DHT22;13733;51.178;4.450;2023-07-30T07:52:50;19.50;99.90
25937;DHT22;13733;51.178;4.450;2023-07-30T07:55:17;19.60;99.90
25937;DHT22;13733;51.178;4.450;2023-07-30T07:57:42;19.70;99.90
25937;DHT22;13733;51.178;4.450;2023-07-30T08:00:08;19.60;99.90
25937;DHT22;13733;51.178;4.450;2023-07-30T08:02:40;19.60;99.90
25937;DHT22;13733;51.178;4.450;2023-07-30T08:05:06;19.50;99.90
25937;DHT22;13733;51.178;4.450;2023-07-30T08:07:33;19.50;99.90
25937;DHT22;13733;51.178;4.450;2023-07-30T08:09:58;19.60;99.90
25937;DHT22;13733;51.178;4.450;2023-07-30T08:12:24;19.80;99.90
25937;DHT22;13733;51.178;4.450;2023-07-30T08:14:50;20.00;99.90
25937;DHT22;13733;51.178;4.450;2023-07-30T08:17:16;20.00;99.90
25937;DHT22;13733;51.178;4.450;2023-07-30T08:19:41;20.10;99.90
25937;DHT22;13733;51.178;4.450;2023-07-30T08:22:07;20.10;99.90
25937;DHT22;13733;51.178;4.450;2023-07-30T08:24:33;20.00;99.90
25937;DHT22;13733;51.178;4.450;2023-07-30T08:26:59;20.00;99.90
25937;DHT22;13733;51.178;4.450;2023-07-30T08:29:24;20.10;99.90
25937;DHT22;13733;51.178;4.450;2023-07-30T08:31:50;20.20;99.90
25937;DHT22;13733;51.178;4.450;2023-07-30T08:34:16;20.30;99.90
25937;DHT22;13733;51.178;4.450;2023-07-30T08:36:42;20.30;99.90
25937;DHT22;13733;51.178;4.450;2023-07-30T08:39:08;20.40;99.90
25937;DHT22;13733;51.178;4.450;2023-07-30T08:41:33;20.40;99.90
25937;DHT22;13733;51.178;4.450;2023-07-30T08:43:59;20.20;99.90
25937;DHT22;13733;51.178;4.450;2023-07-30T08:46:25;20.30;99.90
25937;DHT22;13733;51.178;4.450;2023-07-30T08:48:52;20.40;99.90
25937;DHT22;13733;51.178;4.450;2023-07-30T08:51:19;20.80;99.90
25937;DHT22;13733;51.178;4.450;2023-07-30T08:53:47;20.90;99.90
25937;DHT22;13733;51.178;4.450;2023-07-30T08:56:13;20.80;99.90
25937;DHT22;13733;51.178;4.450;2023-07-30T08:58:40;20.70;99.90
25937;DHT22;13733;51.178;4.450;2023-07-30T09:01:11;20.80;99.90
25937;DHT22;13733;51.178;4.450;2023-07-30T09:03:40;20.90;99.90
25937;DHT22;13733;51.178;4.450;2023-07-30T09:06:09;20.80;99.90
25937;DHT22;13733;51.178;4.450;2023-07-30T09:08:35;20.90;99.90
25937;DHT22;13733;51.178;4.450;2023-07-30T09:11:10;20.70;99.90
25937;DHT22;13733;51.178;4.450;2023-07-30T09:13:41;20.70;99.90
25937;DHT22;13733;51.178;4.450;2023-07-30T09:16:15;20.70;99.90
25937;DHT22;13733;51.178;4.450;2023-07-30T09:18:45;20.60;99.90
25937;DHT22;13733;51.178;4.450;2023-07-30T09:21:15;20.60;99.90
25937;DHT22;13733;51.178;4.450;2023-07-30T09:23:42;20.60;99.90
25937;DHT22;13733;51.178;4.450;2023-07-30T09:26:08;20.70;99.90
25937;DHT22;13733;51.178;4.450;2023-07-30T09:28:34;20.90;99.90
25937;DHT22;13733;51.178;4.450;2023-07-30T09:31:04;21.20;99.90
25937;DHT22;13733;51.178;4.450;2023-07-30T09:33:34;21.60;99.90
25937;DHT22;13733;51.178;4.450;2023-07-30T09:36:04;21.80;99.90
25937;DHT22;13733;51.178;4.450;2023-07-30T09:38:30;21.60;99.90
25937;DHT22;13733;51.178;4.450;2023-07-30T09:41:02;21.00;99.90
25937;DHT22;13733;51.178;4.450;2023-07-30T09:43:32;20.90;99.90
25937;DHT22;13733;51.178;4.450;2023-07-30T09:46:02;21.20;99.90
25937;DHT22;13733;51.178;4.450;2023-07-30T09:48:32;21.00;99.90
25937;DHT22;13733;51.178;4.450;2023-07-30T09:51:02;21.30;99.90
25937;DHT22;13733;51.178;4.450;2023-07-30T09:53:33;21.30;99.90
25937;DHT22;13733;51.178;4.450;2023-07-30T09:56:04;21.20;99.90
25937;DHT22;13733;51.178;4.450;2023-07-30T09:58:31;20.80;99.90
25937;DHT22;13733;51.178;4.450;2023-07-30T10:00:58;20.90;99.90
25937;DHT22;13733;51.178;4.450;2023-07-30T10:03:26;21.00;99.90
25937;DHT22;13733;51.178;4.450;2023-07-30T10:05:56;21.40;99.90
25937;DHT22;13733;51.178;4.450;2023-07-30T10:08:26;21.80;99.90
25937;DHT22;13733;51.178;4.450;2023-07-30T10:10:55;22.10;99.90
25937;DHT22;13733;51.178;4.450;2023-07-30T10:13:23;22.20;99.90
25937;DHT22;13733;51.178;4.450;2023-07-30T10:15:49;22.10;99.90
25937;DHT22;13733;51.178;4.450;2023-07-30T10:18:16;21.90;99.90
25937;DHT22;13733;51.178;4.450;2023-07-30T10:20:52;21.70;99.90
25937;DHT22;13733;51.178;4.450;2023-07-30T10:23:18;21.80;99.90
25937;DHT22;13733;51.178;4.450;2023-07-30T10:25:52;21.70;99.90
25937;DHT22;13733;51.178;4.450;2023-07-30T10:28:31;21.70;99.90
25937;DHT22;13733;51.178;4.450;2023-07-30T10:30:58;21.90;99.90
25937;DHT22;13733;51.178;4.450;2023-07-30T10:33:27;22.20;99.90
25937;DHT22;13733;51.178;4.450;2023-07-30T10:36:10;22.20;99.90
25937;DHT22;13733;51.178;4.450;2023-07-30T10:38:36;22.00;99.90
25937;DHT22;13733;51.178;4.450;2023-07-30T10:41:15;22.30;99.90
25937;DHT22;13733;51.178;4.450;2023-07-30T10:43:46;22.70;99.90
25937;DHT22;13733;51.178;4.450;2023-07-30T10:46:14;22.80;99.90
25937;DHT22;13733;51.178;4.450;2023-07-30T10:48:42;23.00;99.90
25937;DHT22;13733;51.178;4.450;2023-07-30T10:51:12;23.00;99.90
25937;DHT22;13733;51.178;4.450;2023-07-30T10:53:38;23.00;99.90
25937;DHT22;13733;51.178;4.450;2023-07-30T10:56:06;22.90;99.90
25937;DHT22;13733;51.178;4.450;2023-07-30T10:58:34;22.60;99.90
25937;DHT22;13733;51.178;4.450;2023-07-30T11:01:07;22.50;99.90
25937;DHT22;13733;51.178;4.450;2023-07-30T11:03:34;22.50;99.90
25937;DHT22;13733;51.178;4.450;2023-07-30T11:06:01;22.60;99.90
25937;DHT22;13733;51.178;4.450;2023-07-30T11:08:41;22.90;99.90
25937;DHT22;13733;51.178;4.450;2023-07-30T11:11:10;22.80;99.90
25937;DHT22;13733;51.178;4.450;2023-07-30T11:13:41;23.30;99.90
25937;DHT22;13733;51.178;4.450;2023-07-30T11:16:08;23.30;99.90
25937;DHT22;13733;51.178;4.450;2023-07-30T11:18:35;23.40;99.90
25937;DHT22;13733;51.178;4.450;2023-07-30T11:21:11;23.90;99.90
25937;DHT22;13733;51.178;4.450;2023-07-30T11:23:39;23.90;99.90
25937;DHT22;13733;51.178;4.450;2023-07-30T11:26:06;23.90;99.90
25937;DHT22;13733;51.178;4.450;2023-07-30T11:28:39;23.60;99.90
25937;DHT22;13733;51.178;4.450;2023-07-30T11:31:12;24.10;99.90
25937;DHT22;13733;51.178;4.450;2023-07-30T11:33:41;24.70;99.90
25937;DHT22;13733;51.178;4.450;2023-07-30T11:36:10;24.80;97.90
25937;DHT22;13733;51.178;4.450;2023-07-30T11:38:38;24.90;96.60
25937;DHT22;13733;51.178;4.450;2023-07-30T11:41:06;25.30;95.30
25937;DHT22;13733;51.178;4.450;2023-07-30T11:43:39;24.90;94.90
25937;DHT22;13733;51.178;4.450;2023-07-30T11:46:10;24.20;96.10
25937;DHT22;13733;51.178;4.450;2023-07-30T11:48:37;23.80;98.10
25937;DHT22;13733;51.178;4.450;2023-07-30T11:51:07;23.50;98.90
25937;DHT22;13733;51.178;4.450;2023-07-30T11:54:18;24.40;98.10
25937;DHT22;13733;51.178;4.450;2023-07-30T11:56:44;24.70;96.60
25937;DHT22;13733;51.178;4.450;2023-07-30T11:59:09;25.00;95.70
25937;DHT22;13733;51.178;4.450;2023-07-30T12:01:36;25.00;95.20
25937;DHT22;13733;51.178;4.450;2023-07-30T12:04:04;24.70;94.80
25937;DHT22;13733;51.178;4.450;2023-07-30T12:09:24;24.50;93.80
25937;DHT22;13733;51.178;4.450;2023-07-30T12:11:54;25.60;92.10
25937;DHT22;13733;51.178;4.450;2023-07-30T12:14:24;26.50;91.40
25937;DHT22;13733;51.178;4.450;2023-07-30T12:16:56;26.80;88.90
25937;DHT22;13733;51.178;4.450;2023-07-30T12:19:22;26.00;90.60
25937;DHT22;13733;51.178;4.450;2023-07-30T12:21:48;25.50;91.50
25937;DHT22;13733;51.178;4.450;2023-07-30T12:24:14;25.10;92.40
25937;DHT22;13733;51.178;4.450;2023-07-30T12:26:39;26.00;91.70
25937;DHT22;13733;51.178;4.450;2023-07-30T12:29:06;26.90;89.10
25937;DHT22;13733;51.178;4.450;2023-07-30T12:31:31;27.20;86.10
25937;DHT22;13733;51.178;4.450;2023-07-30T12:33:57;28.00;82.10
25937;DHT22;13733;51.178;4.450;2023-07-30T12:36:24;27.60;80.10
25937;DHT22;13733;51.178;4.450;2023-07-30T12:38:53;28.50;79.10
25937;DHT22;13733;51.178;4.450;2023-07-30T12:41:20;28.70;72.40
25937;DHT22;13733;51.178;4.450;2023-07-30T12:43:52;28.20;70.60
25937;DHT22;13733;51.178;4.450;2023-07-30T12:46:19;27.50;71.90
25937;DHT22;13733;51.178;4.450;2023-07-30T12:48:44;27.80;70.40
25937;DHT22;13733;51.178;4.450;2023-07-30T12:51:10;27.90;67.20
25937;DHT22;13733;51.178;4.450;2023-07-30T12:53:37;27.80;66.50
25937;DHT22;13733;51.178;4.450;2023-07-30T12:56:03;27.40;69.80
25937;DHT22;13733;51.178;4.450;2023-07-30T12:58:28;27.20;69.90
25937;DHT22;13733;51.178;4.450;2023-07-30T13:00:54;27.70;67.10
25937;DHT22;13733;51.178;4.450;2023-07-30T13:03:20;28.00;64.00
25937;DHT22;13733;51.178;4.450;2023-07-30T13:05:45;28.00;62.90
25937;DHT22;13733;51.178;4.450;2023-07-30T13:08:13;28.20;59.70
25937;DHT22;13733;51.178;4.450;2023-07-30T13:10:38;28.30;61.00
25937;DHT22;13733;51.178;4.450;2023-07-30T13:13:04;28.40;59.30
25937;DHT22;13733;51.178;4.450;2023-07-30T13:15:30;28.80;59.40
25937;DHT22;13733;51.178;4.450;2023-07-30T13:17:55;29.10;58.00
25937;DHT22;13733;51.178;4.450;2023-07-30T13:20:21;27.90;58.40
25937;DHT22;13733;51.178;4.450;2023-07-30T13:22:47;27.60;61.20
25937;DHT22;13733;51.178;4.450;2023-07-30T13:25:13;27.60;61.90
25937;DHT22;13733;51.178;4.450;2023-07-30T13:27:38;28.20;61.40
25937;DHT22;13733;51.178;4.450;2023-07-30T13:30:05;27.80;58.70
25937;DHT22;13733;51.178;4.450;2023-07-30T13:32:31;27.60;59.70
25937;DHT22;13733;51.178;4.450;2023-07-30T13:34:56;28.10;59.30
25937;DHT22;13733;51.178;4.450;2023-07-30T13:37:22;27.30;59.70
25937;DHT22;13733;51.178;4.450;2023-07-30T13:39:48;27.20;62.80
25937;DHT22;13733;51.178;4.450;2023-07-30T13:42:13;28.40;59.80
25937;DHT22;13733;51.178;4.450;2023-07-30T13:44:39;29.60;55.80
25937;DHT22;13733;51.178;4.450;2023-07-30T13:47:05;30.30;53.40
25937;DHT22;13733;51.178;4.450;2023-07-30T13:49:31;30.00;53.30
25937;DHT22;13733;51.178;4.450;2023-07-30T13:51:57;29.30;53.90
25937;DHT22;13733;51.178;4.450;2023-07-30T13:54:22;28.80;54.70
25937;DHT22;13733;51.178;4.450;2023-07-30T13:56:48;29.20;54.20
25937;DHT22;13733;51.178;4.450;2023-07-30T13:59:14;29.20;51.40
25937;DHT22;13733;51.178;4.450;2023-07-30T14:01:39;29.30;51.80
25937;DHT22;13733;51.178;4.450;2023-07-30T14:04:05;29.50;51.70
25937;DHT22;13733;51.178;4.450;2023-07-30T14:06:31;29.00;51.40
25937;DHT22;13733;51.178;4.450;2023-07-30T14:08:57;28.60;52.40
25937;DHT22;13733;51.178;4.450;2023-07-30T14:11:26;28.50;52.20
25937;DHT22;13733;51.178;4.450;2023-07-30T14:13:52;28.90;52.30
25937;DHT22;13733;51.178;4.450;2023-07-30T14:16:17;29.10;52.40
25937;DHT22;13733;51.178;4.450;2023-07-30T14:18:43;28.80;51.50
25937;DHT22;13733;51.178;4.450;2023-07-30T14:21:09;28.20;51.40
25937;DHT22;13733;51.178;4.450;2023-07-30T14:23:34;27.50;52.50
25937;DHT22;13733;51.178;4.450;2023-07-30T14:26:00;27.50;54.30
25937;DHT22;13733;51.178;4.450;2023-07-30T14:28:26;28.10;53.60
25937;DHT22;13733;51.178;4.450;2023-07-30T14:30:52;28.20;54.60
25937;DHT22;13733;51.178;4.450;2023-07-30T14:33:18;28.00;55.40
25937;DHT22;13733;51.178;4.450;2023-07-30T14:35:43;27.40;57.50
25937;DHT22;13733;51.178;4.450;2023-07-30T14:38:09;26.80;59.70
25937;DHT22;13733;51.178;4.450;2023-07-30T14:40:35;26.10;64.30
25937;DHT22;13733;51.178;4.450;2023-07-30T14:43:01;26.10;66.20
25937;DHT22;13733;51.178;4.450;2023-07-30T14:45:26;25.90;68.00
25937;DHT22;13733;51.178;4.450;2023-07-30T14:47:52;25.70;70.60
25937;DHT22;13733;51.178;4.450;2023-07-30T14:50:18;25.50;71.90
25937;DHT22;13733;51.178;4.450;2023-07-30T14:52:44;25.60;73.80
25937;DHT22;13733;51.178;4.450;2023-07-30T14:55:09;26.20;72.90
25937;DHT22;13733;51.178;4.450;2023-07-30T14:57:35;26.90;71.40
25937;DHT22;13733;51.178;4.450;2023-07-30T15:00:01;26.80;71.10
25937;DHT22;13733;51.178;4.450;2023-07-30T15:02:27;26.70;72.10
25937;DHT22;13733;51.178;4.450;2023-07-30T15:04:53;26.30;73.20
25937;DHT22;13733;51.178;4.450;2023-07-30T15:07:19;25.90;75.30
25937;DHT22;13733;51.178;4.450;2023-07-30T15:09:45;25.50;76.90
25937;DHT22;13733;51.178;4.450;2023-07-30T15:12:12;25.20;78.70
25937;DHT22;13733;51.178;4.450;2023-07-30T15:14:38;24.90;81.90
25937;DHT22;13733;51.178;4.450;2023-07-30T15:17:04;24.30;85.90
25937;DHT22;13733;51.178;4.450;2023-07-30T15:19:31;24.20;87.90
25937;DHT22;13733;51.178;4.450;2023-07-30T15:21:56;23.80;90.30
25937;DHT22;13733;51.178;4.450;2023-07-30T15:24:22;23.40;92.60
25937;DHT22;13733;51.178;4.450;2023-07-30T15:26:48;23.00;96.40
25937;DHT22;13733;51.178;4.450;2023-07-30T15:29:14;22.80;99.30
25937;DHT22;13733;51.178;4.450;2023-07-30T15:31:39;22.30;99.90